KCDN/CDN METAR and TAF weather

Enter ICAO airport designator
Station Type Date Time Source
KCDN METAR 2018/10/19 15:15 UTC NOAA

KCDN 191515Z AUTO 06005KT 10SM CLR 17/08 A3036 RMK AO2


Station Type Date Time Source
KCDN Decoded METAR 2018/10/19 15:15 UTC NOAA

Station name not available
Oct 19, 2018 - 11:15 AM EDT / 2018.10.19 1515 UTC
Wind: from the ENE (060 degrees) at 6 MPH (5 KT):0
Visibility: 10 mile(s):0
Sky conditions: clear
Temperature: 62 F (17 C)
Dew Point: 46 F (8 C)
Relative Humidity: 55%
Pressure (altimeter): 30.36 in. Hg (1028 hPa)
ob: KCDN 191515Z AUTO 06005KT 10SM CLR 17/08 A3036 RMK AO2
cycle: 15

Station Type Date Time Source
KCDN TAF UTC NOAA

Error!


Example: see airport list